KTRL/TRL METAR and TAF weather

Enter ICAO airport designator
Station Type Date Time Source
KTRL METAR 2020/09/26 09:53 UTC NOAA

KTRL 260953Z AUTO 16004KT 9SM CLR 17/17 A2995 RMK AO2 SLP136 T01720167


Station Type Date Time Source
KTRL Decoded METAR 2020/09/26 09:53 UTC NOAA

TERRELL MUNICIPAL AIRPORT, TX, United States (KTRL) 32-43N 96-16W 144M
Sep 26, 2020 - 05:53 AM EDT / 2020.09.26 0953 UTC
Wind: from the SSE (160 degrees) at 5 MPH (4 KT):0
Visibility: 9 mile(s):0
Sky conditions: clear
Temperature: 63.0 F (17.2 C)
Dew Point: 62.1 F (16.7 C)
Relative Humidity: 96%
Pressure (altimeter): 29.95 in. Hg (1014 hPa)
ob: KTRL 260953Z AUTO 16004KT 9SM CLR 17/17 A2995 RMK AO2 SLP136 T01720167
cycle: 10

Station Type Date Time Source
KTRL TAF UTC NOAA

Error!

Example: see airport list